Stations météo

réclame
Mon MeteoGroup
Großer Arber, Allemagne (10791): Température de l'air & dewpoint: 18.02.2018 22:00:00 - 24.02.2018 22:00:00 (CET)Großer Arber, Allemagne (10791): Vitesse du vent & gusts: 18.02.2018 22:00:00 - 24.02.2018 22:00:00 (CET)Großer Arber, Allemagne (10791): Direction du vent: 18.02.2018 22:00:00 - 24.02.2018 22:00:00 (CET)Großer Arber, Allemagne (10791): visibility: 18.02.2018 22:00:00 - 24.02.2018 22:00:00 (CET)Großer Arber, Allemagne (10791): Ensoleillement: 18.02.2018 22:00:00 - 24.02.2018 22:00:00 (CET)
Date & Time tt [°C] td [°C] ff [km/h] ff [knt] fx [km/h] fx [knt] dd vv [km] sd [min]
24.02.2018 22:00:00 -15,2 -16,8 26 14 56 30 ENE 1,4 -
24.02.2018 21:00:00 -14,9 -16,5 31 17 55 30 NE 10 -
24.02.2018 20:00:00 -14,8 -16,5 31 17 56 31 NE 11 -
24.02.2018 19:00:00 -14,1 -15,7 36 20 58 31 NE 11 -
24.02.2018 18:00:00 -13,5 -15,8 31 17 56 30 NE 11 -
24.02.2018 17:00:00 -12,8 -15,9 39 21 65 35 NE 10 -
24.02.2018 16:00:00 -11,8 -15,4 38 21 58 32 NE 10 -
24.02.2018 15:00:00 -11,9 -14,2 29 16 55 30 NE 10 -
24.02.2018 14:00:00 -11,8 -14,0 32 18 55 30 NE 10 -
24.02.2018 13:00:00 -11,8 -14,2 34 19 55 30 NE 11 -
24.02.2018 12:00:00 -11,8 -16,5 28 15 54 29 ENE 11 -
24.02.2018 11:00:00 -11,9 -16,7 35 19 60 33 ENE 11 -
24.02.2018 10:00:00 -11,9 -17,4 34 18 58 31 ENE 11 -
24.02.2018 09:00:00 -13,1 -20,0 37 20 62 33 ENE 10 -
24.02.2018 08:00:00 -12,9 -19,5 39 21 63 34 ENE 3,8 -
24.02.2018 07:00:00 -10,9 -22,9 41 22 73 40 ENE 3,5 -
24.02.2018 06:00:00 -10,4 -20,4 41 22 67 36 E 2,4 -
24.02.2018 05:00:00 -11,1 -19,0 34 18 64 34 E 11 -
24.02.2018 04:00:00 -10,5 -19,5 39 21 60 33 E 9 -
24.02.2018 03:00:00 -10,3 -20,6 37 20 59 32 E 11 -
24.02.2018 02:00:00 -10,3 -16,9 38 21 58 31 ENE 2,1 -
24.02.2018 01:00:00 -10,7 -15,7 28 15 57 31 ENE 7 -
24.02.2018 00:00:00 -11,5 -14,2 33 18 49 26 ENE 11 -
23.02.2018 23:00:00 -11,8 -13,4 29 16 51 28 ENE 0,2 -
23.02.2018 22:00:00 -11,5 -12,8 30 16 43 23 ENE 0,2 -
23.02.2018 21:00:00 -11,3 -12,5 29 16 44 24 E 0,1 -
23.02.2018 20:00:00 -11,1 -12,4 29 16 50 27 ENE 0,2 -
23.02.2018 19:00:00 -11,0 -12,3 37 20 53 29 ENE 0,3 -
23.02.2018 18:00:00 -10,9 -11,9 25 14 44 24 NE 0,1 -
23.02.2018 17:00:00 -10,6 -11,7 30 16 42 23 ENE 0,1 -
23.02.2018 16:00:00 -10,2 -11,9 27 14 39 21 NE 3,6 -
23.02.2018 15:00:00 -9,9 -12,1 22 12 33 18 ENE 11 -
23.02.2018 14:00:00 -9,8 -12,0 19 11 34 19 ENE 11 -
23.02.2018 13:00:00 -10,5 -12,2 24 13 39 21 ENE 0,1 -
23.02.2018 12:00:00 -11,0 -12,7 23 12 34 18 ENE 0,1 -
23.02.2018 11:00:00 -11,3 -13,0 23 13 30 16 ENE 0,2 -
23.02.2018 10:00:00 -11,7 -13,3 21 11 33 18 ENE 0,1 -
23.02.2018 09:00:00 -12,0 -13,4 24 13 38 21 E 0,1 -
23.02.2018 08:00:00 -12,0 -13,5 25 14 42 23 ENE 0,1 -
23.02.2018 07:00:00 -12,0 -13,4 29 16 42 23 E 0,2 -
23.02.2018 06:00:00 -12,6 -14,1 30 16 44 24 ENE 0,1 -
23.02.2018 05:00:00 -12,6 -14,0 27 14 37 20 ENE 0,1 -
23.02.2018 04:00:00 -12,2 -13,5 24 13 37 20 NE 0,1 -
23.02.2018 03:00:00 -11,8 -13,1 24 13 40 21 ENE 0,1 -
23.02.2018 02:00:00 -11,6 -13,0 27 15 40 21 ENE 0,1 -
23.02.2018 01:00:00 -11,5 -12,8 24 13 41 22 ENE 0,1 -
23.02.2018 00:00:00 -11,4 -12,7 28 15 47 25 ENE 0,1 -
22.02.2018 23:00:00 -11,3 -12,6 34 18 52 28 ENE 0,2 -
22.02.2018 22:00:00 -11,2 -12,5 34 18 56 30 ENE 0,2 -
22.02.2018 21:00:00 -11,0 -12,3 36 19 51 28 ENE 0,6 -
22.02.2018 20:00:00 -10,9 -12,2 37 20 57 31 ENE 1,0 -
22.02.2018 19:00:00 -10,8 -12,1 36 19 57 31 ENE 2,3 -
22.02.2018 18:00:00 -10,7 -12,0 32 17 51 27 ENE 3,7 -
22.02.2018 17:00:00 -10,7 -12,0 35 19 57 31 NE 1,8 -
22.02.2018 16:00:00 -10,6 -12,1 34 18 49 26 NE 11 -
22.02.2018 15:00:00 -10,1 -11,9 30 16 48 26 NE 0,7 -
22.02.2018 14:00:00 -10,4 -12,1 29 15 59 32 ENE 0,2 -
22.02.2018 13:00:00 -10,6 -12,5 33 18 50 27 ENE 0,2 -
22.02.2018 12:00:00 -11,1 -12,9 34 18 47 25 NE 0,1 -
22.02.2018 11:00:00 -11,1 -12,6 22 12 35 19 ENE 0,1 -
22.02.2018 10:00:00 -11,6 -13,0 22 12 50 27 ENE 0,1 -
22.02.2018 09:00:00 -11,8 -13,1 34 18 59 32 NE 0,1 -
22.02.2018 08:00:00 -11,9 -13,2 36 19 51 28 ENE 0,1 -
22.02.2018 07:00:00 -11,8 -13,0 34 18 59 32 ENE 0,1 -
22.02.2018 06:00:00 -11,8 -13,1 37 20 63 34 ENE 0,1 -
22.02.2018 05:00:00 -11,5 -12,9 39 21 61 33 ENE 0,1 -
22.02.2018 04:00:00 -11,5 -12,9 42 23 59 32 ENE 0,1 -
22.02.2018 03:00:00 -11,5 -12,7 35 19 57 31 NE 0,1 -
22.02.2018 02:00:00 -11,3 -12,6 39 21 55 30 ENE 0,1 -
22.02.2018 01:00:00 -11,1 -12,4 37 20 54 29 ENE 0,1 -
22.02.2018 00:00:00 -10,7 -11,9 31 17 58 31 ENE 0,1 -
21.02.2018 23:00:00 -10,5 -11,9 34 18 56 30 ENE 11 -
21.02.2018 22:00:00 -9,5 -10,5 35 19 51 28 NE 0,2 -
21.02.2018 21:00:00 -9,3 -10,2 27 15 46 25 NE 0,1 -
21.02.2018 20:00:00 -9,2 -11,2 29 16 54 29 NE 11 -
21.02.2018 19:00:00 -9,0 -10,8 30 16 47 26 NE 11 -
21.02.2018 18:00:00 -8,7 -11,1 32 17 49 26 NE 11 -
21.02.2018 17:00:00 -8,4 -11,2 29 16 49 27 NE 11 -
21.02.2018 16:00:00 -8,4 -10,9 28 15 45 25 NE 11 -
21.02.2018 15:00:00 -8,4 -11,2 27 14 41 22 NE 11 -
21.02.2018 14:00:00 -7,9 -13,5 25 13 39 21 ENE 11 -
21.02.2018 13:00:00 -7,3 -14,4 27 15 40 22 ENE 11 -
21.02.2018 12:00:00 -7,4 -13,7 19 10 35 19 ENE 11 -
21.02.2018 11:00:00 -7,3 -14,3 26 14 39 21 ENE 10 -
21.02.2018 10:00:00 -9,7 -13,5 28 15 49 26 ENE 11 -
21.02.2018 09:00:00 -10,0 -12,9 32 17 49 26 NE 11 -
21.02.2018 08:00:00 -10,0 -12,3 31 17 53 28 NE 11 -
21.02.2018 07:00:00 -10,2 -11,5 29 15 51 28 NE 11 -
21.02.2018 06:00:00 -9,8 -11,4 33 18 46 25 NE 11 -
21.02.2018 05:00:00 -9,4 -11,6 29 16 42 23 NE 11 -
21.02.2018 04:00:00 -9,0 -10,4 24 13 34 19 NE 11 -
21.02.2018 03:00:00 -9,1 -10,1 24 13 36 19 NE 0,1 -
21.02.2018 02:00:00 -9,3 -11,1 21 11 32 17 NE 10 -
21.02.2018 01:00:00 -9,3 -10,8 21 11 33 18 NE 11 -
21.02.2018 00:00:00 -8,3 -9,3 24 13 40 21 NE 0,2 -
20.02.2018 23:00:00 -8,6 -9,8 24 13 36 20 NE 11 -
20.02.2018 22:00:00 -8,4 -9,4 22 12 35 19 NE 0,1 -
20.02.2018 21:00:00 -8,1 -8,9 23 12 35 19 NE 0,1 -
20.02.2018 20:00:00 -8,1 -8,8 17 9 29 16 NE 0,1 -
20.02.2018 19:00:00 -8,2 -9,0 19 10 29 15 E 0,1 -
20.02.2018 18:00:00 -8,0 -8,8 16 9 29 15 ENE 0,1 -
20.02.2018 17:00:00 -7,5 -8,5 18 10 25 14 E 0,1 -
20.02.2018 16:00:00 -7,4 -8,4 13 7 18 10 NE 0,1 -
20.02.2018 15:00:00 -6,9 -8,2 12 6 17 9 ENE 0,2 -
20.02.2018 14:00:00 -6,8 -8,1 7 4 11 6 ENE 0,2 -
20.02.2018 13:00:00 -7,1 -8,5 6 4 17 9 E 1,1 -
20.02.2018 12:00:00 -7,5 -9,0 7 4 11 6 E 0,8 -
20.02.2018 11:00:00 -7,8 -9,3 6 4 12 7 ESE 1,0 0
20.02.2018 10:00:00 -7,6 -8,7 6 3 12 7 E 0,1 0
20.02.2018 09:00:00 -8,1 -9,1 9 5 18 10 SSE 0,2 0
20.02.2018 08:00:00 -8,4 -9,4 11 6 16 8 SSE 0,2 0
20.02.2018 07:00:00 -8,4 -9,1 7 4 16 9 SE 0,2 0
20.02.2018 06:00:00 -8,4 -9,3 9 5 16 8 S 0,1 0
20.02.2018 05:00:00 -8,4 -9,3 13 7 19 10 S 0,1 0
20.02.2018 04:00:00 -8,3 -9,1 15 8 23 13 S 0,1 0
20.02.2018 03:00:00 -8,6 -9,4 17 9 27 15 SSE 0,1 0
20.02.2018 02:00:00 -8,8 -10,0 20 11 29 16 SSE 11 0
20.02.2018 01:00:00 -9,7 -10,4 16 8 21 12 SSE 9 0
20.02.2018 00:00:00 -8,2 -10,7 14 8 21 11 SE 11 0
19.02.2018 23:00:00 -8,2 -9,9 16 8 22 12 SSE 11 0
19.02.2018 22:00:00 -7,9 -9,8 18 10 23 13 S 11 0
19.02.2018 21:00:00 -8,4 -9,8 18 10 25 13 SSE 11 0
19.02.2018 20:00:00 -7,5 -9,0 22 12 25 13 SSE 11 0
19.02.2018 19:00:00 -7,3 -9,3 20 11 22 12 SSE 11 0
19.02.2018 18:00:00 -6,2 -8,6 17 9 20 11 SE 11 3
19.02.2018 17:00:00 -6,1 -7,8 11 6 15 8 ESE 11 17
19.02.2018 16:00:00 -4,6 -7,2 9 5 15 8 E 11 40
19.02.2018 15:00:00 -3,2 -8,8 9 5 19 10 E 11 42
19.02.2018 14:00:00 -2,9 -9,8 13 7 23 12 E 11 45
19.02.2018 13:00:00 -2,5 -9,9 17 9 26 14 ESE 11 60
19.02.2018 12:00:00 -2,6 -13,8 16 8 27 15 ESE 11 60
19.02.2018 11:00:00 -2,7 -14,3 21 12 30 16 SE 11 60
19.02.2018 10:00:00 -4,2 -14,8 23 12 34 18 SE 11 46
19.02.2018 09:00:00 -4,7 -16,5 25 13 35 19 SE 11 44
19.02.2018 08:00:00 -6,1 -16,9 29 16 38 20 SE 11 15
19.02.2018 07:00:00 -6,4 -16,2 29 16 36 19 SE 11 0
19.02.2018 06:00:00 -6,8 -15,6 29 16 35 19 SSE 11 0
19.02.2018 05:00:00 -6,6 -14,9 25 14 29 16 SE 11 0
19.02.2018 04:00:00 -6,1 -14,9 23 13 29 15 SE 11 0
19.02.2018 03:00:00 -7,5 -15,0 22 12 25 13 SSE 11 0
19.02.2018 02:00:00 -7,4 -14,4 19 10 22 12 SE 11 0
19.02.2018 01:00:00 -7,7 -13,6 18 10 27 15 SE 10 0
19.02.2018 00:00:00 -8,1 -12,1 20 11 29 15 ESE 10 0
18.02.2018 23:00:00 -8,7 -11,7 24 13 28 15 ESE 11 0
18.02.2018 22:00:00 -9,4 -11,1 23 13 27 15 ESE 11 0

tt = Température de l'air
td = dewpoint
ff = Vitesse du vent
fx = gusts
dd = Direction du vent
vv = visibility
sd = Ensoleillement

stations d'obs. à proximité